Sugar Grove, North Carolina
Current Conditions -  °F | °C
As of 8:15 AM on Thursday 30 Oct 2014 (Local Time) from KTNB Reporting Station
Clear Clear  
Wind Chill: 39°   Ceiling: Unl
Heat Index: 39°   Visibility: 10mi
Dew Point: 35°   Wind: 3mph
Humidity: 86%   Direction: 310°NW
Pressure: 30.07"   Gusts: NA
Location:  36.26°N, 81.79°W
Report Text: KTNB 301215Z AUTO 31003KT 10SM CLR 04/02 A3007 RMK AO2 T00390017
Loading
Personal Weather Stations






























Interactive Weather Map
Tropical Storm Tracking
New forecast layout! Learn more

10-Day Weather Forecast

Advertisements
Track Severe Weather on mobile